sensor_id;sensor_type;location;lat;lon;timestamp;pressure;altitude;pressure_sealevel;temperature;humidity
45633;BME280;31352;41.406;2.158;2022-08-25T00:02:11;100717.16;;;27.52;55.07
45633;BME280;31352;41.406;2.158;2022-08-25T00:04:38;100678.44;;;27.56;55.07
45633;BME280;31352;41.406;2.158;2022-08-25T00:07:07;100649.84;;;27.57;55.10
45633;BME280;31352;41.406;2.158;2022-08-25T00:09:34;100639.16;;;27.57;55.39
45633;BME280;31352;41.406;2.158;2022-08-25T00:12:02;100629.69;;;27.62;55.14
45633;BME280;31352;41.406;2.158;2022-08-25T00:14:31;100620.34;;;27.66;56.08
45633;BME280;31352;41.406;2.158;2022-08-25T00:16:59;100600.63;;;27.67;55.33
45633;BME280;31352;41.406;2.158;2022-08-25T00:19:27;100580.94;;;27.68;54.95
45633;BME280;31352;41.406;2.158;2022-08-25T00:21:54;100572.19;;;27.66;55.19
45633;BME280;31352;41.406;2.158;2022-08-25T00:24:21;100567.44;;;27.60;55.52
45633;BME280;31352;41.406;2.158;2022-08-25T00:26:49;100536.03;;;27.62;55.27
45633;BME280;31352;41.406;2.158;2022-08-25T00:29:17;100550.94;;;27.65;55.33
45633;BME280;31352;41.406;2.158;2022-08-25T00:31:44;100577.59;;;27.57;55.29
45633;BME280;31352;41.406;2.158;2022-08-25T00:34:14;100600.97;;;27.55;55.61
45633;BME280;31352;41.406;2.158;2022-08-25T00:36:41;100625.59;;;27.58;55.55
45633;BME280;31352;41.406;2.158;2022-08-25T00:39:08;100620.41;;;27.57;55.20
45633;BME280;31352;41.406;2.158;2022-08-25T00:41:35;100597.88;;;27.59;55.08
45633;BME280;31352;41.406;2.158;2022-08-25T00:44:03;100596.47;;;27.55;54.97
45633;BME280;31352;41.406;2.158;2022-08-25T00:46:32;100554.75;;;27.62;54.69
45633;BME280;31352;41.406;2.158;2022-08-25T00:48:59;100546.22;;;27.49;54.19
45633;BME280;31352;41.406;2.158;2022-08-25T00:51:50;100521.06;;;27.42;54.36
45633;BME280;31352;41.406;2.158;2022-08-25T00:54:24;100552.84;;;27.45;54.31
45633;BME280;31352;41.406;2.158;2022-08-25T00:56:53;100609.72;;;27.57;54.97
45633;BME280;31352;41.406;2.158;2022-08-25T00:59:20;100618.25;;;27.60;55.14
45633;BME280;31352;41.406;2.158;2022-08-25T01:01:48;100603.78;;;27.63;54.51
45633;BME280;31352;41.406;2.158;2022-08-25T01:04:16;100585.19;;;27.61;54.61
45633;BME280;31352;41.406;2.158;2022-08-25T01:06:43;100594.91;;;27.62;54.50
45633;BME280;31352;41.406;2.158;2022-08-25T01:09:13;100596.72;;;27.62;53.93
45633;BME280;31352;41.406;2.158;2022-08-25T01:11:41;100582.13;;;27.56;53.37
45633;BME280;31352;41.406;2.158;2022-08-25T01:14:07;100579.47;;;27.47;53.35
45633;BME280;31352;41.406;2.158;2022-08-25T01:16:36;100583.00;;;27.47;53.52
45633;BME280;31352;41.406;2.158;2022-08-25T01:19:04;100577.06;;;27.53;53.06
45633;BME280;31352;41.406;2.158;2022-08-25T01:21:35;100561.84;;;27.54;53.23
45633;BME280;31352;41.406;2.158;2022-08-25T01:24:03;100569.75;;;27.46;53.70
45633;BME280;31352;41.406;2.158;2022-08-25T01:26:31;100588.91;;;27.41;53.32
45633;BME280;31352;41.406;2.158;2022-08-25T01:28:59;100601.44;;;27.41;53.03
45633;BME280;31352;41.406;2.158;2022-08-25T01:31:44;100616.50;;;27.42;53.13
45633;BME280;31352;41.406;2.158;2022-08-25T01:34:11;100613.28;;;27.38;52.89
45633;BME280;31352;41.406;2.158;2022-08-25T01:36:39;100589.88;;;27.40;52.86
45633;BME280;31352;41.406;2.158;2022-08-25T01:39:06;100588.78;;;27.43;52.91
45633;BME280;31352;41.406;2.158;2022-08-25T01:44:00;100606.34;;;27.45;52.79
45633;BME280;31352;41.406;2.158;2022-08-25T01:46:27;100600.31;;;27.43;52.80
45633;BME280;31352;41.406;2.158;2022-08-25T01:48:54;100605.84;;;27.23;52.70
45633;BME280;31352;41.406;2.158;2022-08-25T01:51:22;100614.84;;;27.22;52.65
45633;BME280;31352;41.406;2.158;2022-08-25T01:53:49;100609.81;;;27.19;52.70
45633;BME280;31352;41.406;2.158;2022-08-25T01:56:16;100612.03;;;27.33;53.13
45633;BME280;31352;41.406;2.158;2022-08-25T01:58:44;100620.63;;;27.27;52.47
45633;BME280;31352;41.406;2.158;2022-08-25T02:01:13;100618.66;;;27.29;52.19
45633;BME280;31352;41.406;2.158;2022-08-25T02:03:42;100614.78;;;27.04;52.70
45633;BME280;31352;41.406;2.158;2022-08-25T02:06:12;100618.69;;;27.09;52.78
45633;BME280;31352;41.406;2.158;2022-08-25T02:08:39;100607.88;;;27.11;52.71
45633;BME280;31352;41.406;2.158;2022-08-25T02:11:09;100609.72;;;27.01;52.81
45633;BME280;31352;41.406;2.158;2022-08-25T02:13:37;100618.00;;;27.07;52.75
45633;BME280;31352;41.406;2.158;2022-08-25T02:16:05;100618.66;;;27.19;53.06
45633;BME280;31352;41.406;2.158;2022-08-25T02:18:33;100617.41;;;27.23;52.86
45633;BME280;31352;41.406;2.158;2022-08-25T02:21:00;100609.81;;;27.19;52.91
45633;BME280;31352;41.406;2.158;2022-08-25T02:23:26;100605.59;;;27.16;52.38
45633;BME280;31352;41.406;2.158;2022-08-25T02:25:53;100610.13;;;26.96;52.31
45633;BME280;31352;41.406;2.158;2022-08-25T02:28:22;100612.94;;;27.04;51.96
45633;BME280;31352;41.406;2.158;2022-08-25T02:30:49;100613.50;;;27.08;51.92
45633;BME280;31352;41.406;2.158;2022-08-25T02:33:23;100622.97;;;26.93;52.26
45633;BME280;31352;41.406;2.158;2022-08-25T02:35:50;100609.72;;;26.82;52.25
45633;BME280;31352;41.406;2.158;2022-08-25T02:38:17;100610.16;;;26.87;52.84
45633;BME280;31352;41.406;2.158;2022-08-25T02:40:43;100602.56;;;26.92;52.52
45633;BME280;31352;41.406;2.158;2022-08-25T02:43:10;100607.22;;;26.90;52.74
45633;BME280;31352;41.406;2.158;2022-08-25T02:45:36;100599.75;;;26.84;52.42
45633;BME280;31352;41.406;2.158;2022-08-25T02:48:03;100605.50;;;26.79;52.81
45633;BME280;31352;41.406;2.158;2022-08-25T02:50:30;100599.75;;;26.74;52.31
45633;BME280;31352;41.406;2.158;2022-08-25T02:52:57;100596.94;;;26.85;52.10
45633;BME280;31352;41.406;2.158;2022-08-25T02:55:24;100591.84;;;26.73;52.19
45633;BME280;31352;41.406;2.158;2022-08-25T02:57:50;100581.44;;;26.79;51.94
45633;BME280;31352;41.406;2.158;2022-08-25T03:00:17;100592.69;;;26.73;51.97
45633;BME280;31352;41.406;2.158;2022-08-25T03:02:44;100584.56;;;26.75;51.04
45633;BME280;31352;41.406;2.158;2022-08-25T03:05:12;100579.06;;;26.76;50.62
45633;BME280;31352;41.406;2.158;2022-08-25T03:07:39;100579.91;;;26.77;50.58
45633;BME280;31352;41.406;2.158;2022-08-25T03:10:08;100582.72;;;26.85;50.35
45633;BME280;31352;41.406;2.158;2022-08-25T03:12:35;100576.25;;;26.78;50.61
45633;BME280;31352;41.406;2.158;2022-08-25T03:15:02;100578.69;;;26.81;53.06
45633;BME280;31352;41.406;2.158;2022-08-25T03:17:34;100580.91;;;26.85;53.64
45633;BME280;31352;41.406;2.158;2022-08-25T03:20:02;100580.59;;;26.79;55.70
45633;BME280;31352;41.406;2.158;2022-08-25T03:22:30;100579.19;;;26.84;56.39
45633;BME280;31352;41.406;2.158;2022-08-25T03:24:57;100576.41;;;26.86;55.97
45633;BME280;31352;41.406;2.158;2022-08-25T03:27:49;100581.72;;;26.76;57.33
45633;BME280;31352;41.406;2.158;2022-08-25T03:30:16;100587.22;;;26.75;57.78
45633;BME280;31352;41.406;2.158;2022-08-25T03:32:43;100598.47;;;26.69;58.63
45633;BME280;31352;41.406;2.158;2022-08-25T03:35:10;100595.81;;;26.69;59.83
45633;BME280;31352;41.406;2.158;2022-08-25T03:37:36;100594.13;;;26.77;59.64
45633;BME280;31352;41.406;2.158;2022-08-25T03:40:04;100590.72;;;26.75;60.43
45633;BME280;31352;41.406;2.158;2022-08-25T03:42:31;100592.13;;;26.70;61.65
45633;BME280;31352;41.406;2.158;2022-08-25T03:44:58;100592.69;;;26.73;61.63
45633;BME280;31352;41.406;2.158;2022-08-25T03:47:24;100601.16;;;26.69;62.27
45633;BME280;31352;41.406;2.158;2022-08-25T03:49:51;100588.91;;;26.66;62.46
45633;BME280;31352;41.406;2.158;2022-08-25T03:52:18;100586.78;;;26.70;62.66
45633;BME280;31352;41.406;2.158;2022-08-25T03:54:44;100596.63;;;26.69;62.50
45633;BME280;31352;41.406;2.158;2022-08-25T03:57:11;100594.69;;;26.61;62.95
45633;BME280;31352;41.406;2.158;2022-08-25T03:59:38;100589.63;;;26.68;63.08
45633;BME280;31352;41.406;2.158;2022-08-25T04:02:05;100597.19;;;26.63;63.56
45633;BME280;31352;41.406;2.158;2022-08-25T04:04:32;100593.28;;;26.57;64.30
45633;BME280;31352;41.406;2.158;2022-08-25T04:06:58;100601.16;;;26.59;64.19
45633;BME280;31352;41.406;2.158;2022-08-25T04:09:25;100596.94;;;26.56;64.23
45633;BME280;31352;41.406;2.158;2022-08-25T04:11:56;100597.47;;;26.60;64.37
45633;BME280;31352;41.406;2.158;2022-08-25T04:14:22;100599.59;;;26.66;64.00
45633;BME280;31352;41.406;2.158;2022-08-25T04:16:49;100617.47;;;26.85;63.01
45633;BME280;31352;41.406;2.158;2022-08-25T04:19:16;100620.00;;;26.86;63.65
45633;BME280;31352;41.406;2.158;2022-08-25T04:21:42;100617.47;;;26.85;63.69
45633;BME280;31352;41.406;2.158;2022-08-25T04:24:10;100619.00;;;26.87;63.39
45633;BME280;31352;41.406;2.158;2022-08-25T04:26:39;100618.47;;;26.84;64.16
45633;BME280;31352;41.406;2.158;2022-08-25T04:29:06;100627.47;;;26.83;64.19
45633;BME280;31352;41.406;2.158;2022-08-25T04:31:36;100633.34;;;26.77;64.46
45633;BME280;31352;41.406;2.158;2022-08-25T04:34:04;100638.81;;;26.75;63.93
45633;BME280;31352;41.406;2.158;2022-08-25T04:36:51;100642.91;;;26.50;64.95
45633;BME280;31352;41.406;2.158;2022-08-25T04:39:18;100652.63;;;26.71;64.44
45633;BME280;31352;41.406;2.158;2022-08-25T04:41:46;100645.56;;;26.70;64.39
45633;BME280;31352;41.406;2.158;2022-08-25T04:44:13;100666.09;;;26.69;64.86
45633;BME280;31352;41.406;2.158;2022-08-25T04:46:40;100673.75;;;26.83;64.21
45633;BME280;31352;41.406;2.158;2022-08-25T04:49:06;100679.38;;;26.80;64.70
45633;BME280;31352;41.406;2.158;2022-08-25T04:51:34;100676.69;;;26.80;64.59
45633;BME280;31352;41.406;2.158;2022-08-25T04:54:03;100684.81;;;26.79;64.71
45633;BME280;31352;41.406;2.158;2022-08-25T04:56:31;100692.28;;;26.85;64.38
45633;BME280;31352;41.406;2.158;2022-08-25T04:59:01;100691.31;;;26.86;64.25
45633;BME280;31352;41.406;2.158;2022-08-25T05:01:28;100697.59;;;26.75;64.73
45633;BME280;31352;41.406;2.158;2022-08-25T05:03:56;100692.53;;;26.43;64.82
45633;BME280;31352;41.406;2.158;2022-08-25T05:06:23;100695.34;;;26.51;64.51
45633;BME280;31352;41.406;2.158;2022-08-25T05:08:49;100699.25;;;26.28;64.88
45633;BME280;31352;41.406;2.158;2022-08-25T05:11:17;100695.44;;;26.31;65.62
45633;BME280;31352;41.406;2.158;2022-08-25T05:13:46;100693.94;;;26.47;64.78
45633;BME280;31352;41.406;2.158;2022-08-25T05:16:17;100690.72;;;26.53;64.29
45633;BME280;31352;41.406;2.158;2022-08-25T05:18:44;100692.97;;;26.68;63.83
45633;BME280;31352;41.406;2.158;2022-08-25T05:21:15;100698.31;;;26.58;63.53
45633;BME280;31352;41.406;2.158;2022-08-25T05:23:42;100697.19;;;26.60;63.39
45633;BME280;31352;41.406;2.158;2022-08-25T05:26:09;100703.53;;;26.59;62.70
45633;BME280;31352;41.406;2.158;2022-08-25T05:28:40;100699.47;;;26.75;62.34
45633;BME280;31352;41.406;2.158;2022-08-25T05:31:08;100698.88;;;26.61;61.95
45633;BME280;31352;41.406;2.158;2022-08-25T05:33:36;100706.47;;;26.76;62.24
45633;BME280;31352;41.406;2.158;2022-08-25T05:36:03;100700.75;;;26.80;61.32
45633;BME280;31352;41.406;2.158;2022-08-25T05:38:30;100703.78;;;26.66;60.54
45633;BME280;31352;41.406;2.158;2022-08-25T05:40:58;100700.41;;;26.64;60.11
45633;BME280;31352;41.406;2.158;2022-08-25T05:43:25;100701.25;;;26.65;59.88
45633;BME280;31352;41.406;2.158;2022-08-25T05:45:55;100709.69;;;26.50;59.71
45633;BME280;31352;41.406;2.158;2022-08-25T05:48:22;100713.06;;;26.52;59.18
45633;BME280;31352;41.406;2.158;2022-08-25T05:50:52;100707.69;;;26.43;59.25
45633;BME280;31352;41.406;2.158;2022-08-25T05:53:19;100698.31;;;26.58;59.00
45633;BME280;31352;41.406;2.158;2022-08-25T05:55:46;100700.13;;;26.57;59.30
45633;BME280;31352;41.406;2.158;2022-08-25T05:58:13;100711.66;;;26.58;59.23
45633;BME280;31352;41.406;2.158;2022-08-25T06:00:40;100712.91;;;26.54;59.25
45633;BME280;31352;41.406;2.158;2022-08-25T06:03:06;100718.25;;;26.54;59.26
45633;BME280;31352;41.406;2.158;2022-08-25T06:05:33;100720.09;;;26.44;59.27
45633;BME280;31352;41.406;2.158;2022-08-25T06:08:00;100742.44;;;26.52;59.24
45633;BME280;31352;41.406;2.158;2022-08-25T06:10:26;100736.56;;;26.58;59.20
45633;BME280;31352;41.406;2.158;2022-08-25T06:12:53;100745.66;;;26.46;59.40
45633;BME280;31352;41.406;2.158;2022-08-25T06:15:23;100750.44;;;26.43;58.97
45633;BME280;31352;41.406;2.158;2022-08-25T06:17:50;100747.91;;;26.41;58.99
45633;BME280;31352;41.406;2.158;2022-08-25T06:20:21;100752.81;;;26.46;58.56
45633;BME280;31352;41.406;2.158;2022-08-25T06:22:51;100750.47;;;26.52;58.56
45633;BME280;31352;41.406;2.158;2022-08-25T06:25:19;100752.16;;;26.53;58.10
45633;BME280;31352;41.406;2.158;2022-08-25T06:27:46;100755.94;;;26.60;57.70
45633;BME280;31352;41.406;2.158;2022-08-25T06:30:15;100759.63;;;26.59;57.39
45633;BME280;31352;41.406;2.158;2022-08-25T06:32:49;100761.44;;;26.59;56.99
45633;BME280;31352;41.406;2.158;2022-08-25T06:35:17;100767.38;;;26.63;56.79
45633;BME280;31352;41.406;2.158;2022-08-25T06:37:45;100778.31;;;26.69;56.27
45633;BME280;31352;41.406;2.158;2022-08-25T06:40:13;100768.94;;;26.75;56.51
45633;BME280;31352;41.406;2.158;2022-08-25T06:42:40;100770.31;;;26.69;54.17
45633;BME280;31352;41.406;2.158;2022-08-25T06:45:06;100757.41;;;26.74;54.90
45633;BME280;31352;41.406;2.158;2022-08-25T06:47:33;100764.72;;;26.82;55.19
45633;BME280;31352;41.406;2.158;2022-08-25T06:50:00;100756.03;;;26.80;52.84
45633;BME280;31352;41.406;2.158;2022-08-25T06:52:29;100758.41;;;26.83;51.74
45633;BME280;31352;41.406;2.158;2022-08-25T06:54:56;100743.78;;;26.87;52.07
45633;BME280;31352;41.406;2.158;2022-08-25T06:57:22;100743.50;;;26.99;54.47
45633;BME280;31352;41.406;2.158;2022-08-25T06:59:49;100755.31;;;27.06;54.28
45633;BME280;31352;41.406;2.158;2022-08-25T07:02:19;100746.63;;;27.04;53.88
45633;BME280;31352;41.406;2.158;2022-08-25T07:04:47;100746.63;;;27.04;52.30
45633;BME280;31352;41.406;2.158;2022-08-25T07:07:14;100741.56;;;27.11;53.77
45633;BME280;31352;41.406;2.158;2022-08-25T07:09:41;100749.13;;;27.15;53.12
45633;BME280;31352;41.406;2.158;2022-08-25T07:12:08;100753.06;;;27.21;53.72
45633;BME280;31352;41.406;2.158;2022-08-25T07:14:35;100756.59;;;27.22;53.19
45633;BME280;31352;41.406;2.158;2022-08-25T07:17:02;100762.94;;;27.11;50.86
45633;BME280;31352;41.406;2.158;2022-08-25T07:19:37;100767.28;;;27.12;50.10
45633;BME280;31352;41.406;2.158;2022-08-25T07:22:06;100770.22;;;26.99;50.25
45633;BME280;31352;41.406;2.158;2022-08-25T07:24:34;100773.75;;;27.09;50.80
45633;BME280;31352;41.406;2.158;2022-08-25T07:27:01;100770.22;;;27.09;51.39
45633;BME280;31352;41.406;2.158;2022-08-25T07:29:28;100769.38;;;27.18;52.35
45633;BME280;31352;41.406;2.158;2022-08-25T07:32:01;100770.22;;;27.09;49.80
45633;BME280;31352;41.406;2.158;2022-08-25T07:34:28;100776.03;;;27.14;49.44
45633;BME280;31352;41.406;2.158;2022-08-25T07:37:18;100780.09;;;27.18;50.91
45633;BME280;31352;41.406;2.158;2022-08-25T07:40:05;100779.53;;;27.24;50.73
45633;BME280;31352;41.406;2.158;2022-08-25T07:42:32;100781.63;;;27.30;51.67
45633;BME280;31352;41.406;2.158;2022-08-25T07:44:59;100784.47;;;27.19;49.72
45633;BME280;31352;41.406;2.158;2022-08-25T07:47:25;100794.31;;;27.28;50.02
45633;BME280;31352;41.406;2.158;2022-08-25T07:49:52;100803.75;;;27.32;51.60
45633;BME280;31352;41.406;2.158;2022-08-25T07:52:19;100810.91;;;27.41;51.80
45633;BME280;31352;41.406;2.158;2022-08-25T07:54:46;100809.22;;;27.31;51.31
45633;BME280;31352;41.406;2.158;2022-08-25T07:57:13;100815.41;;;27.31;49.41
45633;BME280;31352;41.406;2.158;2022-08-25T07:59:40;100822.19;;;27.16;49.87
45633;BME280;31352;41.406;2.158;2022-08-25T08:02:08;100824.72;;;27.18;49.92
45633;BME280;31352;41.406;2.158;2022-08-25T08:04:44;100835.13;;;27.21;49.89
45633;BME280;31352;41.406;2.158;2022-08-25T08:07:11;100822.59;;;27.31;49.87
45633;BME280;31352;41.406;2.158;2022-08-25T08:09:38;100819.91;;;27.31;49.89
45633;BME280;31352;41.406;2.158;2022-08-25T08:12:04;100830.22;;;27.26;49.92
45633;BME280;31352;41.406;2.158;2022-08-25T08:14:32;100831.59;;;27.39;50.87
45633;BME280;31352;41.406;2.158;2022-08-25T08:17:03;100835.13;;;27.40;50.99
45633;BME280;31352;41.406;2.158;2022-08-25T08:19:31;100837.81;;;27.49;50.02
45633;BME280;31352;41.406;2.158;2022-08-25T08:21:58;100839.25;;;27.53;50.99
45633;BME280;31352;41.406;2.158;2022-08-25T08:24:28;100834.19;;;27.50;50.10
45633;BME280;31352;41.406;2.158;2022-08-25T08:27:14;100831.78;;;27.57;51.12
45633;BME280;31352;41.406;2.158;2022-08-25T08:29:44;100822.63;;;27.59;51.86
45633;BME280;31352;41.406;2.158;2022-08-25T08:32:11;100821.91;;;27.57;50.83
45633;BME280;31352;41.406;2.158;2022-08-25T08:34:39;100828.78;;;27.69;50.24
45633;BME280;31352;41.406;2.158;2022-08-25T08:37:07;100839.19;;;27.73;50.99
45633;BME280;31352;41.406;2.158;2022-08-25T08:39:36;100838.91;;;27.76;50.99
45633;BME280;31352;41.406;2.158;2022-08-25T08:52:23;100857.53;;;27.77;51.92
45633;BME280;31352;41.406;2.158;2022-08-25T08:54:57;100864.81;;;27.85;52.35
45633;BME280;31352;41.406;2.158;2022-08-25T08:57:27;100863.56;;;27.89;52.65
45633;BME280;31352;41.406;2.158;2022-08-25T08:59:59;100874.44;;;27.87;54.53
45633;BME280;31352;41.406;2.158;2022-08-25T09:02:27;100884.41;;;27.85;55.07
45633;BME280;31352;41.406;2.158;2022-08-25T09:05:16;100885.41;;;27.84;56.25
45633;BME280;31352;41.406;2.158;2022-08-25T09:10:19;100887.94;;;27.86;56.55
45633;BME280;31352;41.406;2.158;2022-08-25T09:13:07;100894.72;;;27.90;56.48
45633;BME280;31352;41.406;2.158;2022-08-25T09:18:45;100909.47;;;28.03;56.42
45633;BME280;31352;41.406;2.158;2022-08-25T09:21:27;100903.72;;;27.98;57.28
45633;BME280;31352;41.406;2.158;2022-08-25T09:26:34;100905.13;;;28.02;57.43
45633;BME280;31352;41.406;2.158;2022-08-25T09:29:06;100899.03;;;28.00;58.38
45633;BME280;31352;41.406;2.158;2022-08-25T09:31:42;100901.34;;;28.05;58.11
45633;BME280;31352;41.406;2.158;2022-08-25T09:34:13;100901.59;;;28.02;57.97
45633;BME280;31352;41.406;2.158;2022-08-25T09:36:42;100897.22;;;28.10;57.71
45633;BME280;31352;41.406;2.158;2022-08-25T09:39:13;100884.41;;;28.14;56.67
45633;BME280;31352;41.406;2.158;2022-08-25T09:41:52;100874.84;;;28.11;56.79
45633;BME280;31352;41.406;2.158;2022-08-25T09:44:25;100878.63;;;28.09;57.10
45633;BME280;31352;41.406;2.158;2022-08-25T09:47:02;100870.59;;;28.09;57.19
45633;BME280;31352;41.406;2.158;2022-08-25T09:49:30;100872.53;;;28.26;56.52
45633;BME280;31352;41.406;2.158;2022-08-25T09:52:04;100876.19;;;28.25;57.21
45633;BME280;31352;41.406;2.158;2022-08-25T09:54:42;100876.88;;;28.27;58.47
45633;BME280;31352;41.406;2.158;2022-08-25T10:00:20;100887.38;;;28.11;59.08
45633;BME280;31352;41.406;2.158;2022-08-25T10:03:00;100895.81;;;28.16;62.26
45633;BME280;31352;41.406;2.158;2022-08-25T10:05:31;100890.25;;;28.27;61.25
45633;BME280;31352;41.406;2.158;2022-08-25T10:08:02;100894.31;;;28.41;60.07
45633;BME280;31352;41.406;2.158;2022-08-25T10:10:33;100890.69;;;28.32;60.19
45633;BME280;31352;41.406;2.158;2022-08-25T10:13:01;100888.88;;;28.23;59.98
45633;BME280;31352;41.406;2.158;2022-08-25T10:15:34;100885.63;;;28.29;59.64
45633;BME280;31352;41.406;2.158;2022-08-25T10:21:02;100891.84;;;28.30;59.26
45633;BME280;31352;41.406;2.158;2022-08-25T10:23:47;100891.78;;;28.39;59.17
45633;BME280;31352;41.406;2.158;2022-08-25T10:31:35;100868.16;;;28.25;59.64
45633;BME280;31352;41.406;2.158;2022-08-25T10:34:12;100865.03;;;28.30;59.34
45633;BME280;31352;41.406;2.158;2022-08-25T10:36:57;100861.31;;;28.40;60.04
45633;BME280;31352;41.406;2.158;2022-08-25T10:39:36;100854.53;;;28.46;59.25
45633;BME280;31352;41.406;2.158;2022-08-25T10:42:16;100847.75;;;28.51;59.67
45633;BME280;31352;41.406;2.158;2022-08-25T10:44:56;100843.91;;;28.63;59.32
45633;BME280;31352;41.406;2.158;2022-08-25T10:52:55;100831.38;;;28.54;61.97
45633;BME280;31352;41.406;2.158;2022-08-25T10:55:43;100838.66;;;28.71;62.21
45633;BME280;31352;41.406;2.158;2022-08-25T11:00:45;100828.72;;;28.54;61.98
45633;BME280;31352;41.406;2.158;2022-08-25T11:06:06;100821.56;;;28.45;61.97
45633;BME280;31352;41.406;2.158;2022-08-25T11:08:49;100818.16;;;28.43;62.31
45633;BME280;31352;41.406;2.158;2022-08-25T11:11:29;100816.59;;;28.50;61.55
45633;BME280;31352;41.406;2.158;2022-08-25T11:16:42;100812.53;;;28.64;62.77
45633;BME280;31352;41.406;2.158;2022-08-25T11:26:56;100802.72;;;28.64;61.94
45633;BME280;31352;41.406;2.158;2022-08-25T11:29:28;100798.19;;;28.65;62.31
45633;BME280;31352;41.406;2.158;2022-08-25T11:31:57;100786.44;;;28.76;61.62
45633;BME280;31352;41.406;2.158;2022-08-25T11:34:26;100780.59;;;28.80;61.49
45633;BME280;31352;41.406;2.158;2022-08-25T11:36:57;100780.97;;;28.85;61.08
45633;BME280;31352;41.406;2.158;2022-08-25T11:57:36;100775.47;;;29.04;60.61
45633;BME280;31352;41.406;2.158;2022-08-25T12:02:46;100776.50;;;29.21;60.90
45633;BME280;31352;41.406;2.158;2022-08-25T12:10:56;100775.25;;;28.98;60.94
45633;BME280;31352;41.406;2.158;2022-08-25T12:23:36;100795.16;;;29.13;61.22
45633;BME280;31352;41.406;2.158;2022-08-25T12:31:06;100798.72;;;29.31;60.72
45633;BME280;31352;41.406;2.158;2022-08-25T12:36:03;100794.88;;;29.34;61.30
45633;BME280;31352;41.406;2.158;2022-08-25T12:41:08;100789.69;;;29.58;61.02
45633;BME280;31352;41.406;2.158;2022-08-25T12:43:39;100795.19;;;29.48;60.91
45633;BME280;31352;41.406;2.158;2022-08-25T12:51:21;100791.06;;;29.36;61.80
45633;BME280;31352;41.406;2.158;2022-08-25T12:53:50;100792.91;;;29.36;61.33
45633;BME280;31352;41.406;2.158;2022-08-25T12:59:00;100790.81;;;29.12;61.70
45633;BME280;31352;41.406;2.158;2022-08-25T13:01:42;100789.66;;;28.97;62.55
45633;BME280;31352;41.406;2.158;2022-08-25T13:07:41;100789.69;;;29.32;60.45
45633;BME280;31352;41.406;2.158;2022-08-25T13:12:39;100785.75;;;29.09;61.94
45633;BME280;31352;41.406;2.158;2022-08-25T13:15:56;100784.25;;;29.24;61.77
45633;BME280;31352;41.406;2.158;2022-08-25T13:18:11;100785.09;;;29.42;60.08
45633;BME280;31352;41.406;2.158;2022-08-25T13:20:42;100783.44;;;29.49;59.54
45633;BME280;31352;41.406;2.158;2022-08-25T13:23:11;100777.16;;;29.41;59.75
45633;BME280;31352;41.406;2.158;2022-08-25T13:25:48;100775.97;;;29.00;61.48
45633;BME280;31352;41.406;2.158;2022-08-25T13:28:27;100781.75;;;28.95;61.40
45633;BME280;31352;41.406;2.158;2022-08-25T13:31:00;100777.69;;;28.91;61.32
45633;BME280;31352;41.406;2.158;2022-08-25T13:33:27;100776.63;;;29.02;61.43
45633;BME280;31352;41.406;2.158;2022-08-25T13:35:56;100773.09;;;29.19;60.92
45633;BME280;31352;41.406;2.158;2022-08-25T13:38:42;100768.44;;;29.21;60.19
45633;BME280;31352;41.406;2.158;2022-08-25T13:41:16;100768.03;;;29.16;60.38
45633;BME280;31352;41.406;2.158;2022-08-25T13:43:43;100771.41;;;28.83;61.53
45633;BME280;31352;41.406;2.158;2022-08-25T13:46:11;100763.91;;;29.04;61.18
45633;BME280;31352;41.406;2.158;2022-08-25T13:48:40;100757.81;;;29.29;60.17
45633;BME280;31352;41.406;2.158;2022-08-25T13:51:17;100759.09;;;29.07;61.26
45633;BME280;31352;41.406;2.158;2022-08-25T13:53:50;100749.28;;;28.81;62.10
45633;BME280;31352;41.406;2.158;2022-08-25T13:56:52;100742.84;;;28.91;61.87
45633;BME280;31352;41.406;2.158;2022-08-25T13:59:22;100739.09;;;29.02;61.29
45633;BME280;31352;41.406;2.158;2022-08-25T14:01:51;100740.19;;;29.09;61.45
45633;BME280;31352;41.406;2.158;2022-08-25T14:04:24;100730.13;;;28.93;62.04
45633;BME280;31352;41.406;2.158;2022-08-25T14:09:36;100726.91;;;29.07;61.95
45633;BME280;31352;41.406;2.158;2022-08-25T14:12:06;100713.50;;;29.25;61.13
45633;BME280;31352;41.406;2.158;2022-08-25T14:14:34;100700.34;;;29.22;61.63
45633;BME280;31352;41.406;2.158;2022-08-25T14:17:05;100707.91;;;29.36;62.38
45633;BME280;31352;41.406;2.158;2022-08-25T14:19:53;100690.88;;;29.53;61.86
45633;BME280;31352;41.406;2.158;2022-08-25T14:22:20;100691.72;;;29.54;62.06
45633;BME280;31352;41.406;2.158;2022-08-25T14:24:47;100682.34;;;29.58;61.67
45633;BME280;31352;41.406;2.158;2022-08-25T14:27:15;100685.53;;;29.53;61.80
45633;BME280;31352;41.406;2.158;2022-08-25T14:29:42;100676.41;;;29.46;61.62
45633;BME280;31352;41.406;2.158;2022-08-25T14:32:09;100676.41;;;29.46;61.62
45633;BME280;31352;41.406;2.158;2022-08-25T14:34:36;100671.31;;;29.95;60.85
45633;BME280;31352;41.406;2.158;2022-08-25T14:37:26;100662.28;;;30.04;60.53
45633;BME280;31352;41.406;2.158;2022-08-25T14:39:51;100667.06;;;30.26;59.70
45633;BME280;31352;41.406;2.158;2022-08-25T14:42:20;100678.94;;;30.07;60.56
45633;BME280;31352;41.406;2.158;2022-08-25T14:44:50;100668.63;;;29.95;60.39
45633;BME280;31352;41.406;2.158;2022-08-25T14:47:17;100671.16;;;29.88;60.84
45633;BME280;31352;41.406;2.158;2022-08-25T14:49:45;100666.50;;;29.72;60.93
45633;BME280;31352;41.406;2.158;2022-08-25T14:52:18;100664.28;;;29.94;60.56
45633;BME280;31352;41.406;2.158;2022-08-25T14:54:48;100658.66;;;29.79;61.39
45633;BME280;31352;41.406;2.158;2022-08-25T14:57:14;100659.66;;;30.12;60.36
45633;BME280;31352;41.406;2.158;2022-08-25T14:59:41;100660.09;;;29.99;60.40
45633;BME280;31352;41.406;2.158;2022-08-25T15:02:08;100666.63;;;29.63;61.45